Packwaukee, WI (53953)

8:56 AM CST on February 06, 2016 (GMT -0600)
Marquette County | | Change Station
CLOSE
Current Station
Personal Weather Station
Location: Montello, WI
Elevation: 797 ft
Nearby Weather Stations

Elev 797 ft 43.79 °N, 89.34 °W | Updated 20 minutes ago

Overcast
Overcast
27.0 °F
Feels Like 27 °F
N
0.0
Wind Variable Wind from WNW
Gusts 4.0 mph

Today
High -- | Low -- °F
--% Chance of Precip.
Yesterday
High -- | Low -- °F
Precip. -- in
Pressure 30.20 in
Visibility 8.0 miles
Clouds Overcast 1100 ft
Windchill 27 °F
Dew Point 25 °F
Humidity 91%
Rainfall Not available.
Snow Depth Not available.
7:09 AM 5:15 PM
Waning Crescent, 5% visible
METAR KY50 061356Z AUTO 25007KT 8SM OVC011 M03/M04 A3017 RMK AO2 TSNO T10271038 SLP227
Pressure 30.20 in
Visibility 8.0 miles
Clouds Overcast 1100 ft
Windchill 27 °F
Dew Point 25 °F
Humidity 91%
Rainfall Not available.
Snow Depth Not available.
7:09 AM 5:15 PM
Waning Crescent, 5% visible
METAR KY50 061356Z AUTO 25007KT 8SM OVC011 M03/M04 A3017 RMK AO2 TSNO T10271038 SLP227

10-Day Weather Forecast

Almanac

Astronomy

Feb. 06, 2016 Rise Set
Actual Time
Civil Twilight
Nautical Twilight
Astronomical Twilight
Moon
Length of Visible Light
Length of Day
Tomorrow will be .
, % of the Moon is Illuminated

Today's Extremes

State Highs State Lows

Community

WunderPhotos

Upload Photos

1,890,983 photos uploaded!

WunderBlog® & News

Nearby

Air Quality

  Air Quality AQ Index Pollutant
Not available.

Snow Depth

Station Depth Elevation

Earthquake Activity

City Distance Mag. Time & Date
Minimum magnitude displayed is 2.5.

Coastal Water Temperatures

Place Temperature

Stations

Nearby Weather Stations

Station Location Temp. Windchill Dew Point Humidity Wind Precip. Elev Updated Type
                   

Watches & Warnings

There are currently no watches in effect.